createdAt,value
2022-12-28T00:02:57.225Z,2.25
2022-12-28T00:05:58.641Z,3.33
2022-12-28T00:09:00.113Z,3.03
2022-12-28T00:12:01.372Z,2.83
2022-12-28T00:15:02.649Z,3.38
2022-12-28T00:18:04.049Z,3.33
2022-12-28T00:21:05.436Z,3.33
2022-12-28T00:24:07.104Z,2.72
2022-12-28T00:27:08.482Z,2.70
2022-12-28T00:30:10.177Z,2.72
2022-12-28T00:33:11.442Z,2.10
2022-12-28T00:36:13.685Z,2.63
2022-12-28T00:39:14.985Z,1.85
2022-12-28T00:42:16.342Z,2.72
2022-12-28T00:45:17.761Z,2.05
2022-12-28T00:48:19.084Z,2.85
2022-12-28T00:51:20.500Z,2.75
2022-12-28T00:54:21.809Z,2.40
2022-12-28T00:57:23.088Z,3.47
2022-12-28T01:00:24.391Z,2.75
2022-12-28T01:03:25.651Z,2.88
2022-12-28T01:06:27.394Z,2.60
2022-12-28T01:09:28.733Z,3.05
2022-12-28T01:12:34.603Z,3.22
2022-12-28T01:15:39.159Z,2.90
2022-12-28T01:18:40.492Z,2.58
2022-12-28T01:21:42.631Z,4.03
2022-12-28T01:24:43.934Z,2.05
2022-12-28T01:27:45.310Z,2.53
2022-12-28T01:30:46.565Z,2.90
2022-12-28T01:33:48.105Z,2.63
2022-12-28T01:36:49.409Z,3.05
2022-12-28T01:39:50.713Z,2.90
2022-12-28T01:42:52.037Z,3.08
2022-12-28T01:45:53.556Z,2.72
2022-12-28T01:48:57.903Z,2.72
2022-12-28T01:52:02.229Z,2.72
2022-12-28T01:55:29.826Z,2.60
2022-12-28T01:58:31.840Z,2.03
2022-12-28T02:01:33.207Z,2.85
2022-12-28T02:04:34.771Z,3.10
2022-12-28T02:07:36.033Z,2.75
2022-12-28T02:10:43.045Z,2.60
2022-12-28T02:13:48.340Z,2.88
2022-12-28T02:16:49.665Z,1.73
2022-12-28T02:19:50.997Z,2.88
2022-12-28T02:22:55.051Z,2.58
2022-12-28T02:26:14.455Z,1.80
2022-12-28T02:29:23.971Z,2.38
2022-12-28T02:32:44.069Z,1.95
2022-12-28T02:35:57.863Z,2.13
2022-12-28T02:39:01.569Z,3.30
2022-12-28T02:42:04.164Z,2.63
2022-12-28T02:45:24.427Z,2.15
2022-12-28T02:48:44.122Z,2.25
2022-12-28T02:51:48.481Z,1.98
2022-12-28T02:55:19.193Z,2.25
2022-12-28T02:58:39.137Z,1.95
2022-12-28T03:01:59.783Z,3.05
2022-12-28T03:05:13.459Z,2.00
2022-12-28T03:08:20.674Z,2.17
2022-12-28T03:11:30.042Z,2.28
2022-12-28T03:14:46.500Z,2.35
2022-12-28T03:18:06.740Z,2.35
2022-12-28T03:21:28.566Z,1.77
2022-12-28T03:24:50.680Z,2.45
2022-12-28T03:28:10.908Z,2.67
2022-12-28T03:31:17.473Z,2.90
2022-12-28T03:34:18.740Z,2.30
2022-12-28T03:37:34.132Z,2.50
2022-12-28T03:40:42.824Z,2.42
2022-12-28T03:43:50.408Z,2.25
2022-12-28T03:47:01.569Z,2.53
2022-12-28T03:50:03.443Z,1.85
2022-12-28T03:53:04.802Z,2.80
2022-12-28T03:56:10.423Z,1.92
2022-12-28T03:59:11.688Z,2.28
2022-12-28T04:02:13.148Z,1.23
2022-12-28T04:05:15.449Z,3.45
2022-12-28T04:08:17.037Z,2.45
2022-12-28T04:11:18.289Z,2.42
2022-12-28T04:14:19.570Z,2.70
2022-12-28T04:17:20.858Z,3.30
2022-12-28T04:20:22.163Z,3.33
2022-12-28T04:23:23.482Z,2.30
2022-12-28T04:26:24.839Z,1.60
2022-12-28T04:29:26.310Z,1.77
2022-12-28T04:32:28.700Z,2.00
2022-12-28T04:35:31.709Z,1.98
2022-12-28T04:38:33.502Z,1.90
2022-12-28T04:41:34.838Z,1.92
2022-12-28T04:44:36.117Z,1.75
2022-12-28T04:47:37.402Z,1.52
2022-12-28T04:50:38.701Z,1.98
2022-12-28T04:53:40.555Z,1.95
2022-12-28T04:56:41.913Z,1.40
2022-12-28T04:59:43.213Z,2.05
2022-12-28T05:02:46.465Z,1.92
2022-12-28T05:05:47.861Z,2.25
2022-12-28T05:08:49.169Z,2.28
2022-12-28T05:11:50.643Z,2.03
2022-12-28T05:14:52.574Z,2.80
2022-12-28T05:17:54.518Z,1.95
2022-12-28T05:21:02.741Z,1.85
2022-12-28T05:24:04.108Z,1.65
2022-12-28T05:27:05.453Z,2.60
2022-12-28T05:30:07.184Z,1.75
2022-12-28T05:33:08.527Z,2.28
2022-12-28T05:36:11.253Z,1.73
2022-12-28T05:39:12.549Z,2.33
2022-12-28T05:42:13.916Z,1.50
2022-12-28T05:45:15.274Z,1.27
2022-12-28T05:48:16.571Z,1.83
2022-12-28T05:51:18.831Z,1.98
2022-12-28T05:54:20.118Z,2.35
2022-12-28T05:57:21.363Z,2.05
2022-12-28T06:00:22.771Z,2.03
2022-12-28T06:03:24.110Z,1.52
2022-12-28T06:06:26.079Z,1.85
2022-12-28T06:09:27.407Z,1.83
2022-12-28T06:12:28.640Z,2.08
2022-12-28T06:15:29.978Z,1.73
2022-12-28T06:18:31.405Z,1.85
2022-12-28T06:21:33.549Z,1.88
2022-12-28T06:24:34.873Z,1.08
2022-12-28T06:27:36.157Z,1.67
2022-12-28T06:30:37.443Z,1.40
2022-12-28T06:33:39.003Z,1.33
2022-12-28T06:36:41.533Z,1.92
2022-12-28T06:39:42.767Z,2.13
2022-12-28T06:42:44.111Z,1.63
2022-12-28T06:45:55.406Z,1.52
2022-12-28T06:48:57.090Z,1.27
2022-12-28T06:51:58.379Z,1.05
2022-12-28T06:54:59.706Z,1.38
2022-12-28T06:58:00.963Z,1.75
2022-12-28T07:01:10.366Z,1.85
2022-12-28T07:04:11.927Z,1.25
2022-12-28T07:07:13.183Z,1.70
2022-12-28T07:10:14.600Z,1.30
2022-12-28T07:13:15.850Z,1.65
2022-12-28T07:16:18.144Z,1.52
2022-12-28T07:19:19.471Z,1.35
2022-12-28T07:22:20.748Z,1.02
2022-12-28T07:25:22.288Z,1.17
2022-12-28T07:28:23.862Z,1.73
2022-12-28T07:31:29.907Z,1.33
2022-12-28T07:34:31.226Z,1.23
2022-12-28T07:37:32.563Z,1.23
2022-12-28T07:40:33.841Z,1.15
2022-12-28T07:43:35.590Z,1.75
2022-12-28T07:46:37.815Z,1.00
2022-12-28T07:49:39.124Z,1.13
2022-12-28T07:52:40.360Z,1.52
2022-12-28T07:55:43.490Z,1.48
2022-12-28T08:01:52.350Z,1.20
2022-12-28T08:04:53.696Z,1.25
2022-12-28T08:07:57.220Z,1.77
2022-12-28T08:11:04.101Z,1.27
2022-12-28T08:14:06.184Z,1.25
2022-12-28T08:17:07.500Z,1.13
2022-12-28T08:20:09.046Z,0.95
2022-12-28T08:23:10.347Z,1.50
2022-12-28T08:26:11.600Z,1.20
2022-12-28T08:29:14.790Z,1.25
2022-12-28T08:32:16.084Z,1.10
2022-12-28T08:35:17.515Z,1.52
2022-12-28T08:38:18.773Z,1.00
2022-12-28T08:41:23.072Z,1.42
2022-12-28T08:44:24.381Z,1.10
2022-12-28T08:47:25.674Z,1.52
2022-12-28T08:50:31.657Z,1.10
2022-12-28T08:53:33.520Z,1.17
2022-12-28T08:56:36.184Z,0.88
2022-12-28T08:59:37.470Z,1.10
2022-12-28T09:02:38.876Z,1.20
2022-12-28T09:05:40.423Z,1.17
2022-12-28T09:08:42.624Z,1.23
2022-12-28T09:11:44.463Z,1.30
2022-12-28T09:14:45.898Z,0.70
2022-12-28T09:17:47.636Z,0.85
2022-12-28T09:20:48.899Z,1.13
2022-12-28T09:23:50.921Z,0.73
2022-12-28T09:26:54.482Z,0.75
2022-12-28T09:29:55.777Z,1.05
2022-12-28T09:33:17.014Z,1.20
2022-12-28T09:36:19.153Z,1.08
2022-12-28T09:39:23.285Z,0.95
2022-12-28T09:42:28.172Z,1.10
2022-12-28T09:45:29.558Z,1.48
2022-12-28T09:48:31.109Z,0.77
2022-12-28T09:51:34.818Z,0.98
2022-12-28T09:54:36.168Z,0.77
2022-12-28T09:57:38.882Z,1.55
2022-12-28T10:00:45.129Z,1.23
2022-12-28T10:03:47.207Z,0.93
2022-12-28T10:06:48.625Z,1.10
2022-12-28T10:09:50.282Z,0.85
2022-12-28T10:12:51.717Z,1.50
2022-12-28T10:15:53.037Z,1.02
2022-12-28T10:18:54.628Z,1.30
2022-12-28T10:22:01.077Z,1.38
2022-12-28T10:25:02.418Z,1.05
2022-12-28T10:28:06.236Z,1.05
2022-12-28T10:31:11.505Z,0.82
2022-12-28T10:34:22.581Z,0.80
2022-12-28T10:37:24.510Z,1.13
2022-12-28T10:40:27.658Z,1.13
2022-12-28T10:43:30.533Z,1.15
2022-12-28T10:46:31.886Z,0.68
2022-12-28T10:49:36.787Z,1.27
2022-12-28T10:52:38.115Z,0.80
2022-12-28T10:55:39.755Z,1.00
2022-12-28T10:58:42.098Z,1.10
2022-12-28T11:01:43.729Z,1.13
2022-12-28T11:04:56.240Z,1.20
2022-12-28T11:08:04.958Z,1.00
2022-12-28T11:11:06.915Z,0.85
2022-12-28T11:14:26.887Z,1.27
2022-12-28T11:17:29.324Z,1.00
2022-12-28T11:20:36.191Z,0.90
2022-12-28T11:23:37.872Z,1.10
2022-12-28T11:26:41.485Z,0.93
2022-12-28T11:29:45.132Z,1.60
2022-12-28T11:32:50.158Z,1.15
2022-12-28T11:35:58.936Z,1.13
2022-12-28T11:39:20.948Z,1.20
2022-12-28T11:42:41.950Z,0.90
2022-12-28T11:45:53.849Z,0.80
2022-12-28T11:48:58.432Z,0.93
2022-12-28T11:55:19.770Z,1.33
2022-12-28T11:58:30.176Z,1.02
2022-12-28T12:01:36.670Z,0.70
2022-12-28T12:04:42.163Z,1.10
2022-12-28T12:07:47.830Z,1.13
2022-12-28T12:10:49.867Z,1.35
2022-12-28T12:13:51.524Z,1.13
2022-12-28T12:17:03.803Z,0.88
2022-12-28T12:20:08.338Z,1.00
2022-12-28T12:26:28.075Z,1.10
2022-12-28T12:29:37.449Z,1.23
2022-12-28T12:32:43.413Z,0.90
2022-12-28T12:36:02.485Z,1.10
2022-12-28T12:39:23.782Z,1.70
2022-12-28T12:42:52.148Z,1.27
2022-12-28T12:45:53.500Z,1.25
2022-12-28T12:49:00.599Z,1.08
2022-12-28T12:52:06.270Z,0.90
2022-12-28T12:55:10.427Z,1.23
2022-12-28T12:58:14.736Z,1.08
2022-12-28T13:01:28.244Z,1.13
2022-12-28T13:04:31.670Z,1.02
2022-12-28T13:07:33.468Z,0.88
2022-12-28T13:10:37.432Z,1.20
2022-12-28T13:13:39.496Z,1.10
2022-12-28T13:16:40.846Z,1.30
2022-12-28T13:19:42.127Z,1.13
2022-12-28T13:22:45.264Z,1.05
2022-12-28T13:25:48.793Z,1.42
2022-12-28T13:28:50.038Z,1.33
2022-12-28T13:31:51.553Z,1.02
2022-12-28T13:34:52.831Z,0.82
2022-12-28T13:38:04.438Z,1.23
2022-12-28T13:41:08.992Z,1.10
2022-12-28T13:47:14.246Z,0.77
2022-12-28T13:50:18.329Z,0.85
2022-12-28T13:53:21.702Z,1.02
2022-12-28T13:56:23.643Z,1.25
2022-12-28T13:59:24.998Z,0.90
2022-12-28T14:02:27.378Z,0.75
2022-12-28T14:05:29.775Z,1.17
2022-12-28T14:08:33.801Z,1.10
2022-12-28T14:11:35.871Z,0.93
2022-12-28T14:14:37.453Z,1.02
2022-12-28T14:17:39.907Z,0.95
2022-12-28T14:20:51.258Z,1.13
2022-12-28T14:24:02.161Z,0.65
2022-12-28T14:27:03.748Z,1.20
2022-12-28T14:30:09.101Z,1.35
2022-12-28T14:33:24.619Z,0.77
2022-12-28T14:36:28.044Z,0.95
2022-12-28T14:39:37.761Z,0.93
2022-12-28T14:42:39.126Z,1.30
2022-12-28T14:46:05.906Z,0.93
2022-12-28T14:49:26.652Z,1.30
2022-12-28T14:52:34.875Z,0.68
2022-12-28T14:55:41.195Z,1.08
2022-12-28T14:58:51.405Z,0.80
2022-12-28T15:01:52.879Z,0.90
2022-12-28T15:05:00.337Z,1.10
2022-12-28T15:08:02.046Z,0.63
2022-12-28T15:14:05.765Z,0.63
2022-12-28T15:17:07.192Z,1.30
2022-12-28T15:20:08.646Z,0.82
2022-12-28T15:23:10.022Z,1.17
2022-12-28T15:26:12.299Z,1.05
2022-12-28T15:29:22.145Z,1.25
2022-12-28T15:32:33.712Z,0.80
2022-12-28T15:35:35.180Z,1.10
2022-12-28T15:38:36.468Z,0.82
2022-12-28T15:41:46.585Z,1.02
2022-12-28T15:44:50.978Z,0.93
2022-12-28T15:47:52.810Z,0.93
2022-12-28T15:50:54.093Z,1.02
2022-12-28T15:53:55.385Z,1.30
2022-12-28T15:56:57.755Z,0.80
2022-12-28T15:59:59.115Z,0.93
2022-12-28T16:03:00.519Z,1.30
2022-12-28T16:06:03.848Z,1.38
2022-12-28T16:09:05.531Z,2.55
2022-12-28T16:12:06.924Z,2.70
2022-12-28T16:15:08.551Z,1.92
2022-12-28T16:18:10.123Z,4.18
2022-12-28T16:21:11.505Z,2.67
2022-12-28T16:24:12.812Z,2.80
2022-12-28T16:27:14.162Z,2.03
2022-12-28T16:30:15.609Z,3.20
2022-12-28T16:33:17.191Z,2.95
2022-12-28T16:36:20.005Z,1.77
2022-12-28T16:39:21.295Z,1.17
2022-12-28T16:42:22.551Z,1.73
2022-12-28T16:45:23.831Z,1.58
2022-12-28T16:48:25.105Z,2.03
2022-12-28T16:51:26.383Z,1.65
2022-12-28T16:54:28.073Z,1.30
2022-12-28T16:57:29.386Z,1.30
2022-12-28T17:00:30.729Z,0.98
2022-12-28T17:03:32.023Z,1.50
2022-12-28T17:06:33.396Z,1.00
2022-12-28T17:09:35.549Z,1.17
2022-12-28T17:12:36.884Z,1.13
2022-12-28T17:15:38.811Z,1.50
2022-12-28T17:18:40.130Z,1.00
2022-12-28T17:21:41.393Z,1.10
2022-12-28T17:24:42.690Z,1.00
2022-12-28T17:27:43.947Z,0.90
2022-12-28T17:30:45.442Z,1.05
2022-12-28T17:33:47.670Z,1.17
2022-12-28T17:36:48.978Z,0.77
2022-12-28T17:39:50.453Z,1.55
2022-12-28T17:42:51.733Z,1.15
2022-12-28T17:45:53.035Z,1.30
2022-12-28T17:48:57.805Z,1.38
2022-12-28T17:51:59.112Z,1.08
2022-12-28T17:55:00.458Z,1.55
2022-12-28T17:58:01.884Z,1.23
2022-12-28T18:01:03.505Z,1.02
2022-12-28T18:04:04.912Z,1.08
2022-12-28T18:07:06.789Z,1.23
2022-12-28T18:10:08.987Z,1.20
2022-12-28T18:13:10.360Z,1.02
2022-12-28T18:16:13.424Z,1.35
2022-12-28T18:19:14.723Z,1.20
2022-12-28T18:22:16.335Z,1.15
2022-12-28T18:25:17.637Z,1.80
2022-12-28T18:28:19.417Z,1.15
2022-12-28T18:31:20.880Z,1.45
2022-12-28T18:34:22.235Z,1.40
2022-12-28T18:37:23.530Z,1.40
2022-12-28T18:40:24.927Z,1.42
2022-12-28T18:43:26.398Z,1.48
2022-12-28T18:46:27.727Z,1.60
2022-12-28T18:49:29.176Z,1.52
2022-12-28T18:52:31.456Z,1.52
2022-12-28T18:55:32.713Z,1.80
2022-12-28T18:58:35.524Z,1.67
2022-12-28T19:02:06.029Z,2.70
2022-12-28T19:05:00.795Z,1.50
2022-12-28T19:08:02.118Z,1.33
2022-12-28T19:11:03.949Z,2.15
2022-12-28T19:14:06.093Z,2.08
2022-12-28T19:17:07.357Z,1.90
2022-12-28T19:20:08.876Z,1.55
2022-12-28T19:23:13.151Z,2.13
2022-12-28T19:26:14.569Z,1.40
2022-12-28T19:29:16.499Z,1.90
2022-12-28T19:32:17.898Z,1.33
2022-12-28T19:35:21.316Z,1.23
2022-12-28T19:38:22.631Z,1.63
2022-12-28T19:41:24.326Z,1.45
2022-12-28T19:44:25.668Z,1.88
2022-12-28T19:47:27.004Z,2.00
2022-12-28T19:50:28.489Z,1.65
2022-12-28T19:53:29.941Z,1.88
2022-12-28T19:56:31.269Z,2.20
2022-12-28T19:59:32.544Z,1.85
2022-12-28T20:02:33.935Z,1.42
2022-12-28T20:05:35.672Z,1.73
2022-12-28T20:08:37.131Z,1.90
2022-12-28T20:11:38.788Z,1.13
2022-12-28T20:14:40.097Z,1.35
2022-12-28T20:17:46.585Z,1.70
2022-12-28T20:21:18.057Z,1.40
2022-12-28T20:24:10.687Z,1.67
2022-12-28T20:27:12.017Z,1.38
2022-12-28T20:30:13.364Z,1.50
2022-12-28T20:33:15.372Z,1.10
2022-12-28T20:36:18.086Z,1.00
2022-12-28T20:39:19.333Z,1.25
2022-12-28T20:42:39.060Z,1.52
2022-12-28T20:45:40.317Z,1.55
2022-12-28T20:48:41.621Z,1.10
2022-12-28T20:51:43.201Z,1.40
2022-12-28T20:54:44.559Z,1.42
2022-12-28T20:57:45.885Z,1.20
2022-12-28T21:00:47.360Z,1.23
2022-12-28T21:03:48.952Z,0.82
2022-12-28T21:06:50.316Z,1.13
2022-12-28T21:09:51.928Z,1.50
2022-12-28T21:12:53.231Z,0.93
2022-12-28T21:15:54.693Z,1.38
2022-12-28T21:18:56.082Z,1.40
2022-12-28T21:21:57.398Z,1.30
2022-12-28T21:24:58.646Z,1.50
2022-12-28T21:28:00.012Z,1.20
2022-12-28T21:31:03.620Z,1.15
2022-12-28T21:34:05.013Z,0.98
2022-12-28T21:37:24.871Z,1.40
2022-12-28T21:40:26.189Z,1.38
2022-12-28T21:43:27.864Z,1.05
2022-12-28T21:46:29.171Z,1.25
2022-12-28T21:49:30.563Z,1.48
2022-12-28T21:52:32.657Z,1.20
2022-12-28T21:55:53.086Z,1.30
2022-12-28T21:58:54.516Z,1.30
2022-12-28T22:02:14.824Z,1.13
2022-12-28T22:05:35.187Z,1.55
2022-12-28T22:08:54.867Z,1.23
2022-12-28T22:12:16.021Z,1.45
2022-12-28T22:15:37.404Z,1.40
2022-12-28T22:19:01.760Z,1.00
2022-12-28T22:22:00.163Z,1.70
2022-12-28T22:25:01.615Z,1.42
2022-12-28T22:28:04.180Z,1.45
2022-12-28T22:31:06.221Z,1.50
2022-12-28T22:34:07.805Z,2.05
2022-12-28T22:37:09.126Z,1.23
2022-12-28T22:40:11.094Z,1.55
2022-12-28T22:43:12.388Z,1.42
2022-12-28T22:46:13.680Z,1.30
2022-12-28T22:49:15.036Z,1.42
2022-12-28T22:52:16.361Z,1.33
2022-12-28T22:55:17.792Z,1.63
2022-12-28T22:58:19.081Z,1.63
2022-12-28T23:01:20.531Z,1.65
2022-12-28T23:04:21.917Z,1.88
2022-12-28T23:07:23.182Z,1.73
2022-12-28T23:10:24.510Z,1.58
2022-12-28T23:13:26.865Z,1.63
2022-12-28T23:16:28.197Z,1.67
2022-12-28T23:19:48.161Z,1.40
2022-12-28T23:23:08.211Z,2.05
2022-12-28T23:26:28.836Z,1.90
2022-12-28T23:29:30.928Z,1.67
2022-12-28T23:32:32.315Z,1.50
2022-12-28T23:35:33.724Z,1.52
2022-12-28T23:38:34.973Z,1.73
2022-12-28T23:41:48.543Z,1.80
2022-12-28T23:44:49.848Z,1.45
2022-12-28T23:47:54.114Z,1.80
2022-12-28T23:51:07.772Z,1.23
2022-12-28T23:54:09.338Z,1.80
2022-12-28T23:57:10.601Z,1.58
